sensor_id;sensor_type;location;lat;lon;timestamp;pressure;altitude;pressure_sealevel;temperature;humidity
33163;BME280;29282;45.656;11.302;2023-07-29T00:01:35;98201.75;;;23.99;56.17
33163;BME280;29282;45.656;11.302;2023-07-29T00:04:01;98203.31;;;24.00;56.14
33163;BME280;29282;45.656;11.302;2023-07-29T00:06:27;98206.09;;;24.00;56.07
33163;BME280;29282;45.656;11.302;2023-07-29T00:08:52;98198.63;;;24.01;56.06
33163;BME280;29282;45.656;11.302;2023-07-29T00:11:18;98204.50;;;23.99;56.16
33163;BME280;29282;45.656;11.302;2023-07-29T00:13:43;98209.69;;;24.01;55.95
33163;BME280;29282;45.656;11.302;2023-07-29T00:16:09;98208.84;;;24.00;55.92
33163;BME280;29282;45.656;11.302;2023-07-29T00:18:35;98219.13;;;24.00;55.89
33163;BME280;29282;45.656;11.302;2023-07-29T00:21:01;98213.59;;;24.00;56.04
33163;BME280;29282;45.656;11.302;2023-07-29T00:23:29;98215.22;;;24.01;55.94
33163;BME280;29282;45.656;11.302;2023-07-29T00:25:55;98210.03;;;23.99;56.22
33163;BME280;29282;45.656;11.302;2023-07-29T00:28:20;98213.25;;;24.01;56.19
33163;BME280;29282;45.656;11.302;2023-07-29T00:30:46;98212.44;;;24.01;55.97
33163;BME280;29282;45.656;11.302;2023-07-29T00:33:11;98201.38;;;24.01;56.19
33163;BME280;29282;45.656;11.302;2023-07-29T00:35:41;98206.91;;;24.01;56.05
33163;BME280;29282;45.656;11.302;2023-07-29T00:38:06;98197.78;;;24.00;56.00
33163;BME280;29282;45.656;11.302;2023-07-29T00:40:35;98204.16;;;24.01;55.75
33163;BME280;29282;45.656;11.302;2023-07-29T00:43:02;98189.47;;;24.00;56.08
33163;BME280;29282;45.656;11.302;2023-07-29T00:45:29;98185.13;;;23.99;55.82
33163;BME280;29282;45.656;11.302;2023-07-29T00:47:54;98185.94;;;24.00;56.05
33163;BME280;29282;45.656;11.302;2023-07-29T00:50:20;98188.69;;;24.00;56.12
33163;BME280;29282;45.656;11.302;2023-07-29T00:52:49;98183.16;;;24.00;56.06
33163;BME280;29282;45.656;11.302;2023-07-29T00:55:15;98186.72;;;24.00;55.84
33163;BME280;29282;45.656;11.302;2023-07-29T00:57:41;98189.47;;;24.00;56.04
33163;BME280;29282;45.656;11.302;2023-07-29T01:00:08;98190.31;;;24.01;56.01
33163;BME280;29282;45.656;11.302;2023-07-29T01:02:35;98183.94;;;24.00;56.25
33163;BME280;29282;45.656;11.302;2023-07-29T01:05:01;98194.22;;;24.00;56.13
33163;BME280;29282;45.656;11.302;2023-07-29T01:07:49;98188.69;;;24.00;55.97
33163;BME280;29282;45.656;11.302;2023-07-29T01:10:41;98183.94;;;24.00;55.85
33163;BME280;29282;45.656;11.302;2023-07-29T01:13:23;98186.72;;;24.00;55.93
33163;BME280;29282;45.656;11.302;2023-07-29T01:16:00;98187.91;;;23.99;55.97
33163;BME280;29282;45.656;11.302;2023-07-29T01:18:31;98194.22;;;24.00;55.84
33163;BME280;29282;45.656;11.302;2023-07-29T01:20:59;98193.44;;;23.99;56.07
33163;BME280;29282;45.656;11.302;2023-07-29T01:23:29;98190.66;;;23.99;56.19
33163;BME280;29282;45.656;11.302;2023-07-29T01:25:54;98192.25;;;24.00;56.06
33163;BME280;29282;45.656;11.302;2023-07-29T01:28:20;98189.09;;;23.98;55.97
33163;BME280;29282;45.656;11.302;2023-07-29T01:30:49;98182.38;;;23.99;55.90
33163;BME280;29282;45.656;11.302;2023-07-29T01:33:21;98185.13;;;23.99;56.04
33163;BME280;29282;45.656;11.302;2023-07-29T01:35:52;98187.91;;;23.99;56.12
33163;BME280;29282;45.656;11.302;2023-07-29T01:38:43;98194.22;;;24.00;55.92
33163;BME280;29282;45.656;11.302;2023-07-29T01:41:09;98187.91;;;23.99;56.00
33163;BME280;29282;45.656;11.302;2023-07-29T01:43:36;98192.63;;;23.99;55.98
33163;BME280;29282;45.656;11.302;2023-07-29T01:46:11;98191.47;;;24.00;56.12
33163;BME280;29282;45.656;11.302;2023-07-29T01:48:37;98178.81;;;23.99;55.99
33163;BME280;29282;45.656;11.302;2023-07-29T01:51:03;98186.31;;;23.98;55.90
33163;BME280;29282;45.656;11.302;2023-07-29T01:53:29;98176.03;;;23.99;56.12
33163;BME280;29282;45.656;11.302;2023-07-29T01:55:55;98181.56;;;23.99;55.85
33163;BME280;29282;45.656;11.302;2023-07-29T01:58:22;98185.13;;;23.99;56.24
33163;BME280;29282;45.656;11.302;2023-07-29T02:00:47;98179.59;;;23.99;56.09
33163;BME280;29282;45.656;11.302;2023-07-29T02:03:13;98179.59;;;23.99;56.08
33163;BME280;29282;45.656;11.302;2023-07-29T02:05:39;98178.81;;;23.99;55.97
33163;BME280;29282;45.656;11.302;2023-07-29T02:08:04;98169.72;;;23.98;55.98
33163;BME280;29282;45.656;11.302;2023-07-29T02:10:30;98170.50;;;23.99;55.95
33163;BME280;29282;45.656;11.302;2023-07-29T02:12:55;98169.72;;;23.98;56.04
33163;BME280;29282;45.656;11.302;2023-07-29T02:15:21;98176.03;;;23.99;56.13
33163;BME280;29282;45.656;11.302;2023-07-29T02:17:46;98177.22;;;23.98;55.98
33163;BME280;29282;45.656;11.302;2023-07-29T02:20:12;98170.50;;;23.99;55.96
33163;BME280;29282;45.656;11.302;2023-07-29T02:22:37;98167.72;;;23.99;56.01
33163;BME280;29282;45.656;11.302;2023-07-29T02:25:03;98167.72;;;23.99;56.17
33163;BME280;29282;45.656;11.302;2023-07-29T02:27:29;98175.25;;;23.98;56.18
33163;BME280;29282;45.656;11.302;2023-07-29T02:29:54;98175.25;;;23.98;56.13
33163;BME280;29282;45.656;11.302;2023-07-29T02:32:20;98176.03;;;23.99;56.09
33163;BME280;29282;45.656;11.302;2023-07-29T02:34:46;98166.16;;;23.98;55.81
33163;BME280;29282;45.656;11.302;2023-07-29T02:37:11;98172.47;;;23.98;55.75
33163;BME280;29282;45.656;11.302;2023-07-29T02:39:37;98168.91;;;23.98;56.14
33163;BME280;29282;45.656;11.302;2023-07-29T02:42:03;98164.19;;;23.98;55.93
33163;BME280;29282;45.656;11.302;2023-07-29T02:44:29;98166.16;;;23.98;56.04
33163;BME280;29282;45.656;11.302;2023-07-29T02:46:54;98166.16;;;23.98;56.05
33163;BME280;29282;45.656;11.302;2023-07-29T02:49:24;98155.09;;;23.98;55.95
33163;BME280;29282;45.656;11.302;2023-07-29T02:51:52;98163.38;;;23.98;56.04
33163;BME280;29282;45.656;11.302;2023-07-29T02:54:18;98159.00;;;23.97;56.02
33163;BME280;29282;45.656;11.302;2023-07-29T02:56:43;98157.84;;;23.98;56.01
33163;BME280;29282;45.656;11.302;2023-07-29T02:59:08;98161.41;;;23.98;56.18
33163;BME280;29282;45.656;11.302;2023-07-29T03:01:34;98164.19;;;23.98;56.14
33163;BME280;29282;45.656;11.302;2023-07-29T03:03:59;98166.16;;;23.98;56.07
33163;BME280;29282;45.656;11.302;2023-07-29T03:06:25;98175.59;;;23.97;56.12
33163;BME280;29282;45.656;11.302;2023-07-29T03:08:50;98183.53;;;23.98;56.04
33163;BME280;29282;45.656;11.302;2023-07-29T03:11:16;98181.56;;;23.99;55.79
33163;BME280;29282;45.656;11.302;2023-07-29T03:13:42;98180.78;;;23.98;55.90
33163;BME280;29282;45.656;11.302;2023-07-29T03:18:34;98180.78;;;23.98;55.86
33163;BME280;29282;45.656;11.302;2023-07-29T03:21:00;98189.09;;;23.98;56.07
33163;BME280;29282;45.656;11.302;2023-07-29T03:23:28;98193.81;;;23.98;55.80
33163;BME280;29282;45.656;11.302;2023-07-29T03:26:09;98188.28;;;23.98;56.04
33163;BME280;29282;45.656;11.302;2023-07-29T03:28:41;98173.63;;;23.97;55.90
33163;BME280;29282;45.656;11.302;2023-07-29T03:31:08;98170.88;;;23.97;56.06
33163;BME280;29282;45.656;11.302;2023-07-29T03:33:33;98176.03;;;23.99;56.00
33163;BME280;29282;45.656;11.302;2023-07-29T03:35:59;98183.91;;;23.97;56.16
33163;BME280;29282;45.656;11.302;2023-07-29T03:38:25;98184.69;;;23.97;56.17
33163;BME280;29282;45.656;11.302;2023-07-29T03:40:50;98193.81;;;23.98;55.98
33163;BME280;29282;45.656;11.302;2023-07-29T03:43:16;98199.34;;;23.98;55.98
33163;BME280;29282;45.656;11.302;2023-07-29T03:45:41;98200.50;;;23.97;55.85
33163;BME280;29282;45.656;11.302;2023-07-29T03:48:07;98209.59;;;23.97;55.97
33163;BME280;29282;45.656;11.302;2023-07-29T03:50:34;98206.84;;;23.97;55.92
33163;BME280;29282;45.656;11.302;2023-07-29T03:53:02;98213.19;;;23.98;55.76
33163;BME280;29282;45.656;11.302;2023-07-29T03:55:28;98206.84;;;23.97;55.99
33163;BME280;29282;45.656;11.302;2023-07-29T03:57:59;98200.50;;;23.97;55.78
33163;BME280;29282;45.656;11.302;2023-07-29T04:00:27;98207.66;;;23.98;55.91
33163;BME280;29282;45.656;11.302;2023-07-29T04:02:53;98203.28;;;23.97;56.27
33163;BME280;29282;45.656;11.302;2023-07-29T04:05:19;98208.81;;;23.97;55.80
33163;BME280;29282;45.656;11.302;2023-07-29T04:07:45;98208.81;;;23.97;55.87
33163;BME280;29282;45.656;11.302;2023-07-29T04:10:10;98215.97;;;23.98;56.01
33163;BME280;29282;45.656;11.302;2023-07-29T04:12:37;98217.91;;;23.97;55.90
33163;BME280;29282;45.656;11.302;2023-07-29T04:15:03;98212.38;;;23.97;55.84
33163;BME280;29282;45.656;11.302;2023-07-29T04:17:28;98217.09;;;23.97;55.82
33163;BME280;29282;45.656;11.302;2023-07-29T04:19:54;98214.34;;;23.97;55.89
33163;BME280;29282;45.656;11.302;2023-07-29T04:22:19;98217.91;;;23.97;55.91
33163;BME280;29282;45.656;11.302;2023-07-29T04:24:45;98210.78;;;23.96;55.98
33163;BME280;29282;45.656;11.302;2023-07-29T04:27:11;98222.28;;;23.98;55.99
33163;BME280;29282;45.656;11.302;2023-07-29T04:29:36;98211.56;;;23.97;55.95
33163;BME280;29282;45.656;11.302;2023-07-29T04:32:05;98211.56;;;23.97;55.90
33163;BME280;29282;45.656;11.302;2023-07-29T04:34:31;98215.53;;;23.96;56.17
33163;BME280;29282;45.656;11.302;2023-07-29T04:36:56;98225.41;;;23.97;55.89
33163;BME280;29282;45.656;11.302;2023-07-29T04:39:22;98242.81;;;23.97;55.96
33163;BME280;29282;45.656;11.302;2023-07-29T04:41:47;98247.56;;;23.97;55.61
33163;BME280;29282;45.656;11.302;2023-07-29T04:44:13;98249.16;;;23.98;55.89
33163;BME280;29282;45.656;11.302;2023-07-29T04:46:38;98250.31;;;23.97;56.01
33163;BME280;29282;45.656;11.302;2023-07-29T04:49:04;98239.25;;;23.97;55.80
33163;BME280;29282;45.656;11.302;2023-07-29T04:51:30;98247.56;;;23.97;55.96
33163;BME280;29282;45.656;11.302;2023-07-29T04:53:59;98236.88;;;23.95;55.88
33163;BME280;29282;45.656;11.302;2023-07-29T04:56:25;98236.88;;;23.95;55.71
33163;BME280;29282;45.656;11.302;2023-07-29T04:58:51;98240.44;;;23.96;55.84
33163;BME280;29282;45.656;11.302;2023-07-29T05:01:17;98237.66;;;23.96;56.08
33163;BME280;29282;45.656;11.302;2023-07-29T05:03:43;98232.13;;;23.96;55.83
33163;BME280;29282;45.656;11.302;2023-07-29T05:06:08;98241.59;;;23.95;55.85
33163;BME280;29282;45.656;11.302;2023-07-29T05:08:34;98244.38;;;23.95;56.09
33163;BME280;29282;45.656;11.302;2023-07-29T05:11:00;98243.19;;;23.96;55.86
33163;BME280;29282;45.656;11.302;2023-07-29T05:13:25;98248.72;;;23.96;55.82
33163;BME280;29282;45.656;11.302;2023-07-29T05:15:51;98253.09;;;23.97;55.97
33163;BME280;29282;45.656;11.302;2023-07-29T05:18:17;98244.78;;;23.97;55.83
33163;BME280;29282;45.656;11.302;2023-07-29T05:20:43;98239.25;;;23.97;55.79
33163;BME280;29282;45.656;11.302;2023-07-29T05:23:08;98233.72;;;23.97;55.90
33163;BME280;29282;45.656;11.302;2023-07-29T05:25:34;98236.47;;;23.97;55.93
33163;BME280;29282;45.656;11.302;2023-07-29T05:28:01;98234.50;;;23.97;55.92
33163;BME280;29282;45.656;11.302;2023-07-29T05:30:26;98239.25;;;23.97;55.72
33163;BME280;29282;45.656;11.302;2023-07-29T05:32:56;98238.09;;;23.98;56.01
33163;BME280;29282;45.656;11.302;2023-07-29T05:35:21;98248.34;;;23.97;55.76
33163;BME280;29282;45.656;11.302;2023-07-29T05:37:47;98238.47;;;23.96;55.85
33163;BME280;29282;45.656;11.302;2023-07-29T05:40:12;98229.34;;;23.96;55.77
33163;BME280;29282;45.656;11.302;2023-07-29T05:42:38;98244.78;;;23.97;55.80
33163;BME280;29282;45.656;11.302;2023-07-29T05:45:04;98239.25;;;23.97;55.82
33163;BME280;29282;45.656;11.302;2023-07-29T05:47:29;98242.81;;;23.97;55.84
33163;BME280;29282;45.656;11.302;2023-07-29T05:49:55;98251.94;;;23.98;55.77
33163;BME280;29282;45.656;11.302;2023-07-29T05:52:20;98247.19;;;23.98;55.76
33163;BME280;29282;45.656;11.302;2023-07-29T05:54:49;98248.00;;;23.99;55.79
33163;BME280;29282;45.656;11.302;2023-07-29T05:57:14;98242.81;;;23.97;55.71
33163;BME280;29282;45.656;11.302;2023-07-29T05:59:40;98246.41;;;23.98;55.91
33163;BME280;29282;45.656;11.302;2023-07-29T06:02:05;98253.53;;;23.99;55.68
33163;BME280;29282;45.656;11.302;2023-07-29T06:04:31;98248.00;;;23.99;55.76
33163;BME280;29282;45.656;11.302;2023-07-29T06:06:57;98252.72;;;23.98;55.63
33163;BME280;29282;45.656;11.302;2023-07-29T06:09:23;98254.31;;;23.99;55.75
33163;BME280;29282;45.656;11.302;2023-07-29T06:11:50;98248.00;;;23.99;55.96
33163;BME280;29282;45.656;11.302;2023-07-29T06:14:16;98254.31;;;23.99;55.97
33163;BME280;29282;45.656;11.302;2023-07-29T06:16:42;98249.56;;;24.00;55.80
33163;BME280;29282;45.656;11.302;2023-07-29T06:19:07;98242.44;;;23.99;55.78
33163;BME280;29282;45.656;11.302;2023-07-29T06:21:34;98242.44;;;23.99;55.55
33163;BME280;29282;45.656;11.302;2023-07-29T06:23:59;98254.31;;;23.99;55.85
33163;BME280;29282;45.656;11.302;2023-07-29T06:26:25;98260.66;;;24.00;55.92
33163;BME280;29282;45.656;11.302;2023-07-29T06:28:50;98248.78;;;23.99;55.84
33163;BME280;29282;45.656;11.302;2023-07-29T06:31:16;98248.00;;;23.99;55.75
33163;BME280;29282;45.656;11.302;2023-07-29T06:33:41;98250.38;;;24.00;55.71
33163;BME280;29282;45.656;11.302;2023-07-29T06:36:07;98255.91;;;24.00;55.75
33163;BME280;29282;45.656;11.302;2023-07-29T06:38:33;98247.59;;;24.00;55.67
33163;BME280;29282;45.656;11.302;2023-07-29T06:40:58;98247.59;;;24.00;55.72
33163;BME280;29282;45.656;11.302;2023-07-29T06:43:24;98252.78;;;24.02;55.64
33163;BME280;29282;45.656;11.302;2023-07-29T06:45:49;98248.44;;;24.01;55.86
33163;BME280;29282;45.656;11.302;2023-07-29T06:48:15;98248.44;;;24.01;55.71
33163;BME280;29282;45.656;11.302;2023-07-29T06:50:40;98251.19;;;24.01;55.47
33163;BME280;29282;45.656;11.302;2023-07-29T06:53:06;98260.28;;;24.01;55.52
33163;BME280;29282;45.656;11.302;2023-07-29T06:55:31;98268.59;;;24.01;55.85
33163;BME280;29282;45.656;11.302;2023-07-29T06:57:57;98277.69;;;24.02;55.74
33163;BME280;29282;45.656;11.302;2023-07-29T07:00:22;98265.44;;;24.03;55.74
33163;BME280;29282;45.656;11.302;2023-07-29T07:02:48;98278.47;;;24.02;55.62
33163;BME280;29282;45.656;11.302;2023-07-29T07:05:16;98276.50;;;24.03;55.91
33163;BME280;29282;45.656;11.302;2023-07-29T07:07:42;98276.50;;;24.03;55.74
33163;BME280;29282;45.656;11.302;2023-07-29T07:10:08;98268.22;;;24.03;55.71
33163;BME280;29282;45.656;11.302;2023-07-29T07:12:33;98273.75;;;24.03;55.56
33163;BME280;29282;45.656;11.302;2023-07-29T07:15:00;98259.91;;;24.03;55.51
33163;BME280;29282;45.656;11.302;2023-07-29T07:17:25;98261.50;;;24.04;55.69
33163;BME280;29282;45.656;11.302;2023-07-29T07:19:51;98260.69;;;24.03;55.62
33163;BME280;29282;45.656;11.302;2023-07-29T07:22:16;98258.72;;;24.04;55.44
33163;BME280;29282;45.656;11.302;2023-07-29T07:24:42;98253.19;;;24.04;55.52
33163;BME280;29282;45.656;11.302;2023-07-29T07:27:07;98258.72;;;24.04;55.65
33163;BME280;29282;45.656;11.302;2023-07-29T07:29:33;98255.94;;;24.04;55.61
33163;BME280;29282;45.656;11.302;2023-07-29T07:31:58;98246.50;;;24.05;55.47
33163;BME280;29282;45.656;11.302;2023-07-29T07:34:24;98247.28;;;24.05;55.49
33163;BME280;29282;45.656;11.302;2023-07-29T07:36:50;98236.59;;;24.04;55.85
33163;BME280;29282;45.656;11.302;2023-07-29T07:39:15;98233.03;;;24.03;55.51
33163;BME280;29282;45.656;11.302;2023-07-29T07:41:41;98238.19;;;24.05;55.63
33163;BME280;29282;45.656;11.302;2023-07-29T07:44:08;98239.78;;;24.06;55.85
33163;BME280;29282;45.656;11.302;2023-07-29T07:46:34;98231.47;;;24.06;55.45
33163;BME280;29282;45.656;11.302;2023-07-29T07:48:59;98231.47;;;24.06;55.61
33163;BME280;29282;45.656;11.302;2023-07-29T07:51:25;98227.13;;;24.05;55.86
33163;BME280;29282;45.656;11.302;2023-07-29T07:53:50;98235.44;;;24.05;55.71
33163;BME280;29282;45.656;11.302;2023-07-29T07:56:16;98235.47;;;24.08;55.60
33163;BME280;29282;45.656;11.302;2023-07-29T07:58:41;98234.69;;;24.08;55.64
33163;BME280;29282;45.656;11.302;2023-07-29T08:01:08;98231.47;;;24.06;55.59
33163;BME280;29282;45.656;11.302;2023-07-29T08:03:34;98225.16;;;24.05;55.61
33163;BME280;29282;45.656;11.302;2023-07-29T08:06:00;98222.38;;;24.05;55.54
33163;BME280;29282;45.656;11.302;2023-07-29T08:08:27;98222.00;;;24.07;55.51
33163;BME280;29282;45.656;11.302;2023-07-29T08:10:56;98224.75;;;24.07;55.63
33163;BME280;29282;45.656;11.302;2023-07-29T08:13:23;98225.19;;;24.09;55.75
33163;BME280;29282;45.656;11.302;2023-07-29T08:15:50;98225.59;;;24.07;55.79
33163;BME280;29282;45.656;11.302;2023-07-29T08:18:17;98233.06;;;24.07;55.31
33163;BME280;29282;45.656;11.302;2023-07-29T08:20:55;98227.53;;;24.07;55.68
33163;BME280;29282;45.656;11.302;2023-07-29T08:23:27;98229.94;;;24.08;55.64
33163;BME280;29282;45.656;11.302;2023-07-29T08:25:53;98224.75;;;24.07;55.79
33163;BME280;29282;45.656;11.302;2023-07-29T08:28:24;98229.16;;;24.08;55.46
33163;BME280;29282;45.656;11.302;2023-07-29T08:30:53;98226.75;;;24.06;55.69
33163;BME280;29282;45.656;11.302;2023-07-29T08:33:18;98229.16;;;24.08;55.68
33163;BME280;29282;45.656;11.302;2023-07-29T08:35:43;98236.66;;;24.07;55.81
33163;BME280;29282;45.656;11.302;2023-07-29T08:38:09;98228.34;;;24.07;55.60
33163;BME280;29282;45.656;11.302;2023-07-29T08:40:35;98229.94;;;24.08;55.42
33163;BME280;29282;45.656;11.302;2023-07-29T08:43:04;98229.16;;;24.08;55.77
33163;BME280;29282;45.656;11.302;2023-07-29T08:45:35;98223.97;;;24.06;55.58
33163;BME280;29282;45.656;11.302;2023-07-29T08:48:10;98223.19;;;24.06;55.85
33163;BME280;29282;45.656;11.302;2023-07-29T08:50:36;98225.59;;;24.07;55.77
33163;BME280;29282;45.656;11.302;2023-07-29T08:53:06;98222.00;;;24.07;55.88
33163;BME280;29282;45.656;11.302;2023-07-29T08:55:32;98225.19;;;24.09;55.56
33163;BME280;29282;45.656;11.302;2023-07-29T08:57:59;98224.41;;;24.08;55.43
33163;BME280;29282;45.656;11.302;2023-07-29T09:00:26;98216.47;;;24.07;55.67
33163;BME280;29282;45.656;11.302;2023-07-29T09:02:52;98210.94;;;24.07;55.71
33163;BME280;29282;45.656;11.302;2023-07-29T09:05:18;98218.09;;;24.08;55.75
33163;BME280;29282;45.656;11.302;2023-07-29T09:07:46;98208.97;;;24.07;55.72
33163;BME280;29282;45.656;11.302;2023-07-29T09:10:15;98205.38;;;24.07;55.77
33163;BME280;29282;45.656;11.302;2023-07-29T09:12:40;98215.72;;;24.10;55.61
33163;BME280;29282;45.656;11.302;2023-07-29T09:15:07;98214.13;;;24.09;55.55
33163;BME280;29282;45.656;11.302;2023-07-29T09:17:33;98221.25;;;24.10;55.83
33163;BME280;29282;45.656;11.302;2023-07-29T09:19:59;98220.09;;;24.11;55.72
33163;BME280;29282;45.656;11.302;2023-07-29T09:22:26;98217.34;;;24.11;55.74
33163;BME280;29282;45.656;11.302;2023-07-29T09:24:53;98217.34;;;24.11;55.86
33163;BME280;29282;45.656;11.302;2023-07-29T09:27:28;98220.91;;;24.11;55.96
33163;BME280;29282;45.656;11.302;2023-07-29T09:29:57;98219.28;;;24.10;56.09
33163;BME280;29282;45.656;11.302;2023-07-29T09:32:24;98226.78;;;24.10;55.84
33163;BME280;29282;45.656;11.302;2023-07-29T09:34:50;98226.78;;;24.10;55.67
33163;BME280;29282;45.656;11.302;2023-07-29T09:37:25;98224.03;;;24.10;55.59
33163;BME280;29282;45.656;11.302;2023-07-29T09:39:51;98229.56;;;24.10;55.56
33163;BME280;29282;45.656;11.302;2023-07-29T09:42:18;98225.63;;;24.11;55.80
33163;BME280;29282;45.656;11.302;2023-07-29T09:44:44;98219.28;;;24.10;55.64
33163;BME280;29282;45.656;11.302;2023-07-29T09:47:19;98222.88;;;24.11;55.77
33163;BME280;29282;45.656;11.302;2023-07-29T09:49:44;98224.03;;;24.10;55.82
33163;BME280;29282;45.656;11.302;2023-07-29T09:52:10;98222.88;;;24.11;55.51
33163;BME280;29282;45.656;11.302;2023-07-29T09:54:36;98220.91;;;24.11;55.82
33163;BME280;29282;45.656;11.302;2023-07-29T09:57:02;98222.88;;;24.11;56.02
33163;BME280;29282;45.656;11.302;2023-07-29T09:59:28;98229.19;;;24.11;55.65
33163;BME280;29282;45.656;11.302;2023-07-29T10:01:53;98218.13;;;24.11;55.70
33163;BME280;29282;45.656;11.302;2023-07-29T10:04:19;98209.81;;;24.11;55.90
33163;BME280;29282;45.656;11.302;2023-07-29T10:06:45;98209.81;;;24.11;55.85
33163;BME280;29282;45.656;11.302;2023-07-29T10:09:12;98216.16;;;24.12;55.78
33163;BME280;29282;45.656;11.302;2023-07-29T10:11:39;98206.25;;;24.11;55.77
33163;BME280;29282;45.656;11.302;2023-07-29T10:14:04;98209.03;;;24.11;55.96
33163;BME280;29282;45.656;11.302;2023-07-29T10:16:30;98207.84;;;24.12;55.73
33163;BME280;29282;45.656;11.302;2023-07-29T10:18:56;98208.63;;;24.12;55.75
33163;BME280;29282;45.656;11.302;2023-07-29T10:21:22;98213.38;;;24.12;55.79
33163;BME280;29282;45.656;11.302;2023-07-29T10:23:49;98208.63;;;24.12;55.79
33163;BME280;29282;45.656;11.302;2023-07-29T10:26:20;98194.81;;;24.12;55.77
33163;BME280;29282;45.656;11.302;2023-07-29T10:28:47;98201.91;;;24.13;55.75
33163;BME280;29282;45.656;11.302;2023-07-29T10:31:16;98192.03;;;24.12;55.83
33163;BME280;29282;45.656;11.302;2023-07-29T10:33:46;98196.78;;;24.12;55.85
33163;BME280;29282;45.656;11.302;2023-07-29T10:36:12;98192.81;;;24.13;55.82
33163;BME280;29282;45.656;11.302;2023-07-29T10:38:38;98197.22;;;24.14;56.03
33163;BME280;29282;45.656;11.302;2023-07-29T10:41:03;98189.31;;;24.16;55.94
33163;BME280;29282;45.656;11.302;2023-07-29T10:43:34;98197.31;;;24.21;56.54
33163;BME280;29282;45.656;11.302;2023-07-29T10:46:17;98198.56;;;24.27;57.24
33163;BME280;29282;45.656;11.302;2023-07-29T10:48:44;98193.81;;;24.28;57.61
33163;BME280;29282;45.656;11.302;2023-07-29T10:53:47;98187.50;;;24.27;58.20
33163;BME280;29282;45.656;11.302;2023-07-29T10:56:13;98186.31;;;24.28;58.81
33163;BME280;29282;45.656;11.302;2023-07-29T10:58:43;98189.13;;;24.32;58.70
33163;BME280;29282;45.656;11.302;2023-07-29T11:01:26;98171.75;;;24.35;59.62
33163;BME280;29282;45.656;11.302;2023-07-29T11:07:18;98184.94;;;24.42;60.93
33163;BME280;29282;45.656;11.302;2023-07-29T11:17:32;98179.97;;;24.58;60.84
33163;BME280;29282;45.656;11.302;2023-07-29T11:20:00;98178.91;;;24.70;60.26
33163;BME280;29282;45.656;11.302;2023-07-29T11:22:26;98176.81;;;24.59;60.25
33163;BME280;29282;45.656;11.302;2023-07-29T11:24:51;98169.22;;;24.53;60.34
33163;BME280;29282;45.656;11.302;2023-07-29T11:27:17;98171.94;;;24.49;60.27
33163;BME280;29282;45.656;11.302;2023-07-29T11:29:42;98163.19;;;24.44;60.13
33163;BME280;29282;45.656;11.302;2023-07-29T11:32:09;98165.53;;;24.42;59.55
33163;BME280;29282;45.656;11.302;2023-07-29T11:34:35;98168.03;;;24.50;59.99
33163;BME280;29282;45.656;11.302;2023-07-29T11:37:00;98158.13;;;24.53;59.89
33163;BME280;29282;45.656;11.302;2023-07-29T11:39:26;98160.50;;;24.51;59.90
33163;BME280;29282;45.656;11.302;2023-07-29T11:41:51;98164.47;;;24.53;60.06
33163;BME280;29282;45.656;11.302;2023-07-29T11:44:17;98169.25;;;24.56;60.06
33163;BME280;29282;45.656;11.302;2023-07-29T11:46:46;98165.63;;;24.49;59.42
33163;BME280;29282;45.656;11.302;2023-07-29T11:49:15;98164.34;;;24.43;59.72
33163;BME280;29282;45.656;11.302;2023-07-29T11:51:42;98163.09;;;24.40;59.87
33163;BME280;29282;45.656;11.302;2023-07-29T11:54:11;98159.13;;;24.37;59.39
33163;BME280;29282;45.656;11.302;2023-07-29T11:56:39;98155.94;;;24.35;59.48
33163;BME280;29282;45.656;11.302;2023-07-29T11:59:07;98156.34;;;24.34;59.73
33163;BME280;29282;45.656;11.302;2023-07-29T12:01:34;98148.03;;;24.34;59.53
33163;BME280;29282;45.656;11.302;2023-07-29T12:04:01;98149.97;;;24.33;59.80
33163;BME280;29282;45.656;11.302;2023-07-29T12:06:29;98151.94;;;24.33;59.46
33163;BME280;29282;45.656;11.302;2023-07-29T12:08:57;98156.69;;;24.32;59.26
33163;BME280;29282;45.656;11.302;2023-07-29T12:11:26;98151.16;;;24.32;59.28
33163;BME280;29282;45.656;11.302;2023-07-29T12:13:55;98144.03;;;24.31;59.30
33163;BME280;29282;45.656;11.302;2023-07-29T12:16:20;98147.59;;;24.32;59.52
33163;BME280;29282;45.656;11.302;2023-07-29T12:18:46;98138.50;;;24.31;58.98
33163;BME280;29282;45.656;11.302;2023-07-29T12:21:15;98125.81;;;24.30;58.71
33163;BME280;29282;45.656;11.302;2023-07-29T12:23:45;98137.69;;;24.31;59.12
33163;BME280;29282;45.656;11.302;2023-07-29T12:26:11;98134.94;;;24.31;59.00
33163;BME280;29282;45.656;11.302;2023-07-29T12:28:38;98127.78;;;24.30;58.90
33163;BME280;29282;45.656;11.302;2023-07-29T12:31:10;98131.34;;;24.30;58.85
33163;BME280;29282;45.656;11.302;2023-07-29T12:33:36;98125.00;;;24.30;58.97
33163;BME280;29282;45.656;11.302;2023-07-29T12:36:07;98125.81;;;24.30;58.79
33163;BME280;29282;45.656;11.302;2023-07-29T12:38:33;98131.34;;;24.30;58.65
33163;BME280;29282;45.656;11.302;2023-07-29T12:41:02;98120.28;;;24.30;58.68
33163;BME280;29282;45.656;11.302;2023-07-29T12:43:30;98120.28;;;24.30;58.69
33163;BME280;29282;45.656;11.302;2023-07-29T12:45:57;98111.97;;;24.30;58.81
33163;BME280;29282;45.656;11.302;2023-07-29T12:48:23;98108.41;;;24.30;58.73
33163;BME280;29282;45.656;11.302;2023-07-29T12:50:48;98113.16;;;24.29;58.49
33163;BME280;29282;45.656;11.302;2023-07-29T12:53:14;98111.16;;;24.30;58.60
33163;BME280;29282;45.656;11.302;2023-07-29T12:55:39;98102.88;;;24.30;58.42
33163;BME280;29282;45.656;11.302;2023-07-29T12:58:05;98100.09;;;24.30;58.57
33163;BME280;29282;45.656;11.302;2023-07-29T13:00:30;98096.53;;;24.29;58.38
33163;BME280;29282;45.656;11.302;2023-07-29T13:02:56;98106.44;;;24.30;58.52
33163;BME280;29282;45.656;11.302;2023-07-29T13:05:24;98098.13;;;24.30;58.48